Time;durP1;ratioP1;P1;durP2;ratioP2;P2;SDS_P1;SDS_P2;PMS_P1;PMS_P2;Temp;Humidity;BMP_temperature;BMP_pressure;BME280_temperature;BME280_humidity;BME280_pressure;Samples;Min_cycle;Max_cycle;Signal;HPM_P1;HPM_P2
2022/07/08 00:03:01;;;;;;;3.60;2.33;;;20.40;76.30;;;;;;10492151;28;20248;-77
2022/07/08 00:08:04;;;;;;;2.53;2.33;;;20.40;75.40;;;;;;10492522;28;20200;-77
2022/07/08 00:13:06;;;;;;;3.90;2.47;;;20.30;75.40;;;;;;10493947;28;20217;-77
2022/07/08 00:18:09;;;;;;;8.03;2.50;;;20.20;75.60;;;;;;10497545;28;20721;-77
2022/07/08 00:23:11;;;;;;;4.83;3.30;;;20.20;76.20;;;;;;10498655;28;20248;-78
2022/07/08 00:28:13;;;;;;;6.50;3.17;;;20.20;74.70;;;;;;10497907;28;20235;-77
2022/07/08 00:33:17;;;;;;;5.60;2.50;;;20.10;72.50;;;;;;10498086;28;20216;-78
2022/07/08 00:38:19;;;;;;;6.13;3.00;;;20.00;71.30;;;;;;10495532;28;20209;-78
2022/07/08 00:43:26;;;;;;;3.40;2.93;;;20.00;72.30;;;;;;10491914;28;20315;-77
2022/07/08 00:48:30;;;;;;;3.37;3.03;;;20.00;71.20;;;;;;10492652;28;20200;-77
2022/07/08 00:53:34;;;;;;;7.93;3.17;;;19.90;70.40;;;;;;10492799;28;20667;-77
2022/07/08 00:58:37;;;;;;;7.80;3.40;;;19.90;72.10;;;;;;10491475;28;20240;-77
2022/07/08 01:03:41;;;;;;;5.73;3.97;;;19.90;70.80;;;;;;10492740;28;20639;-76
2022/07/08 01:08:43;;;;;;;4.63;3.80;;;19.80;71.90;;;;;;10491212;28;20193;-77
2022/07/08 01:13:47;;;;;;;4.90;3.50;;;19.70;73.40;;;;;;10492543;28;20250;-77
2022/07/08 01:18:50;;;;;;;4.60;3.70;;;19.70;72.90;;;;;;10491414;28;20224;-77
2022/07/08 01:23:54;;;;;;;4.67;3.40;;;19.70;72.40;;;;;;10492322;28;20221;-78
2022/07/08 01:28:56;;;;;;;4.90;3.30;;;19.70;71.80;;;;;;10491635;28;20224;-77
2022/07/08 01:33:59;;;;;;;4.10;3.47;;;19.60;72.00;;;;;;10491025;28;20387;-77
2022/07/08 01:39:02;;;;;;;7.27;3.27;;;19.50;70.80;;;;;;10490385;28;20242;-78
2022/07/08 01:44:04;;;;;;;3.87;3.50;;;19.50;71.80;;;;;;10492387;28;20677;-77
2022/07/08 01:49:06;;;;;;;4.90;3.30;;;19.40;70.30;;;;;;10504159;28;20204;-78
2022/07/08 01:54:10;;;;;;;5.10;3.07;;;19.30;70.50;;;;;;10503172;28;20287;-78
2022/07/08 01:59:12;;;;;;;5.87;3.03;;;19.30;70.20;;;;;;10500173;28;20220;-78
2022/07/08 02:04:14;;;;;;;4.37;3.00;;;19.20;72.30;;;;;;10500926;28;20654;-78
2022/07/08 02:09:17;;;;;;;5.03;2.80;;;19.10;70.70;;;;;;10501728;28;20201;-78
2022/07/08 02:14:20;;;;;;;2.97;2.77;;;19.00;71.90;;;;;;10502145;28;20281;-77
2022/07/08 02:19:22;;;;;;;4.33;3.10;;;19.00;72.70;;;;;;10500774;28;20310;-77
2022/07/08 02:24:25;;;;;;;4.77;3.50;;;19.00;72.20;;;;;;10500857;28;20249;-77
2022/07/08 02:29:27;;;;;;;4.90;3.13;;;18.90;71.10;;;;;;10500988;28;20250;-78
2022/07/08 02:34:29;;;;;;;3.57;3.23;;;18.80;72.20;;;;;;10501738;28;20220;-77
2022/07/08 02:39:33;;;;;;;8.90;3.10;;;18.70;72.50;;;;;;10499267;28;20308;-78
2022/07/08 02:44:35;;;;;;;9.13;3.40;;;18.60;71.40;;;;;;10501288;28;20248;-77
2022/07/08 02:49:37;;;;;;;5.07;3.20;;;18.50;73.30;;;;;;10499178;28;20195;-76
2022/07/08 02:54:41;;;;;;;4.10;3.33;;;18.40;73.20;;;;;;10483156;28;20292;-78
2022/07/08 02:59:44;;;;;;;6.77;3.40;;;18.40;74.00;;;;;;10480522;28;20244;-78
2022/07/08 03:04:46;;;;;;;5.27;3.47;;;18.30;72.20;;;;;;10498648;28;20213;-78
2022/07/08 03:09:49;;;;;;;5.30;3.77;;;18.20;73.80;;;;;;10500246;28;20192;-78
2022/07/08 03:14:52;;;;;;;3.57;3.20;;;18.20;74.10;;;;;;10498376;28;20201;-78
2022/07/08 03:19:54;;;;;;;3.70;3.40;;;18.10;74.60;;;;;;10498919;28;20217;-77
2022/07/08 03:24:57;;;;;;;5.27;3.20;;;18.10;73.90;;;;;;10499930;28;20193;-76
2022/07/08 03:29:59;;;;;;;3.63;2.70;;;18.10;75.00;;;;;;10480937;28;20304;-78
2022/07/08 03:35:01;;;;;;;6.30;3.60;;;18.10;74.10;;;;;;10499440;28;20224;-78
2022/07/08 03:45:22;;;;;;;5.57;3.43;;;18.00;75.00;;;;;;10496154;28;20806;-78
2022/07/08 03:50:24;;;;;;;5.70;3.20;;;18.00;75.90;;;;;;10496913;28;20244;-78
2022/07/08 03:55:28;;;;;;;6.53;3.33;;;18.00;74.30;;;;;;10498010;28;20283;-77
2022/07/08 04:00:30;;;;;;;4.80;3.17;;;18.00;74.10;;;;;;10497346;28;20311;-78
2022/07/08 04:05:32;;;;;;;7.47;3.53;;;18.00;73.40;;;;;;10494237;28;20287;-77
2022/07/08 04:10:36;;;;;;;5.10;3.60;;;18.00;73.70;;;;;;10493280;28;20298;-78
2022/07/08 04:15:38;;;;;;;5.67;3.70;;;18.00;74.90;;;;;;10497575;28;20232;-78
2022/07/08 04:20:40;;;;;;;5.77;3.40;;;18.00;74.10;;;;;;10497441;28;20307;-78
2022/07/08 04:25:44;;;;;;;5.00;3.70;;;18.10;74.50;;;;;;10495708;28;20203;-78
2022/07/08 04:30:46;;;;;;;6.17;3.90;;;18.20;73.30;;;;;;10496187;28;20704;-78
2022/07/08 04:35:48;;;;;;;5.70;4.00;;;18.20;74.60;;;;;;10495462;28;20250;-78
2022/07/08 04:40:51;;;;;;;3.93;3.37;;;18.30;74.20;;;;;;10497452;28;20295;-77
2022/07/08 04:45:54;;;;;;;7.47;2.70;;;18.30;74.70;;;;;;10495303;28;20263;-77
2022/07/08 04:50:56;;;;;;;4.47;3.20;;;18.30;74.10;;;;;;10490270;28;20208;-77
2022/07/08 04:55:59;;;;;;;6.73;3.57;;;18.30;73.20;;;;;;10474987;28;20196;-77
2022/07/08 05:01:01;;;;;;;5.93;3.67;;;18.20;73.70;;;;;;10492263;28;20224;-77
2022/07/08 05:06:03;;;;;;;4.43;3.70;;;18.20;74.00;;;;;;10494136;28;20231;-78
2022/07/08 05:11:07;;;;;;;4.73;3.77;;;18.20;73.70;;;;;;10494209;28;20707;-78
2022/07/08 05:16:09;;;;;;;4.13;3.77;;;18.10;74.40;;;;;;10494031;28;20254;-78
2022/07/08 05:21:11;;;;;;;4.87;3.20;;;18.10;74.50;;;;;;10496751;28;20224;-77
2022/07/08 05:26:15;;;;;;;5.07;3.40;;;18.10;74.40;;;;;;10495864;28;20192;-77
2022/07/08 05:31:17;;;;;;;5.10;3.57;;;18.10;74.60;;;;;;10499623;28;20290;-77
2022/07/08 05:36:19;;;;;;;3.70;3.40;;;18.10;74.80;;;;;;10497674;28;20249;-77
2022/07/08 05:41:23;;;;;;;5.17;3.60;;;18.10;72.90;;;;;;10495622;28;20303;-78
2022/07/08 05:46:25;;;;;;;5.33;3.03;;;18.10;73.10;;;;;;10496535;28;20224;-77
2022/07/08 05:51:27;;;;;;;4.60;3.50;;;18.10;71.80;;;;;;10498816;28;20220;-77
2022/07/08 05:56:30;;;;;;;4.83;3.40;;;18.10;72.90;;;;;;10499323;28;20574;-77
2022/07/08 06:01:33;;;;;;;5.13;3.60;;;18.10;72.90;;;;;;10498494;28;20232;-77
2022/07/08 06:06:35;;;;;;;10.70;4.30;;;18.10;73.50;;;;;;10497520;28;20200;-77
2022/07/08 06:11:38;;;;;;;4.77;3.77;;;18.10;73.00;;;;;;10498742;28;20291;-77
2022/07/08 06:16:40;;;;;;;5.50;3.27;;;18.20;73.10;;;;;;10498250;28;20307;-78
2022/07/08 06:21:43;;;;;;;5.30;3.30;;;18.30;72.10;;;;;;10497750;28;20220;-78
2022/07/08 06:26:46;;;;;;;5.70;3.70;;;18.30;72.00;;;;;;10504267;28;20787;-78
2022/07/08 06:31:48;;;;;;;25.07;5.13;;;18.40;71.20;;;;;;10503446;28;20290;-77
2022/07/08 06:36:51;;;;;;;4.60;3.00;;;18.50;72.50;;;;;;10503416;28;20213;-78
2022/07/08 06:41:54;;;;;;;3.40;2.63;;;18.60;71.80;;;;;;10500722;28;20225;-77
2022/07/08 06:46:56;;;;;;;4.03;3.17;;;18.90;71.40;;;;;;10497328;28;20208;-77
2022/07/08 06:51:58;;;;;;;5.27;3.53;;;19.10;71.60;;;;;;10500958;28;20604;-78
2022/07/08 06:57:02;;;;;;;4.10;3.20;;;19.40;68.90;;;;;;10502158;28;20284;-78
2022/07/08 07:02:04;;;;;;;4.27;2.63;;;19.70;67.40;;;;;;10501464;28;20303;-78
2022/07/08 07:07:06;;;;;;;7.10;2.70;;;20.00;64.50;;;;;;10500501;28;20246;-77
2022/07/08 07:12:10;;;;;;;4.90;3.07;;;20.30;64.30;;;;;;10496554;28;20224;-78
2022/07/08 07:17:12;;;;;;;6.10;3.10;;;20.30;64.90;;;;;;10495691;28;20295;-77
2022/07/08 07:22:16;;;;;;;4.40;3.23;;;20.30;65.20;;;;;;10494342;28;20303;-77
2022/07/08 07:27:19;;;;;;;3.00;2.70;;;20.20;62.00;;;;;;10494512;28;20201;-77
2022/07/08 07:32:21;;;;;;;2.53;2.33;;;20.20;62.40;;;;;;10477583;28;20221;-78
2022/07/08 07:37:23;;;;;;;3.17;2.70;;;20.40;63.00;;;;;;10498131;28;20201;-78
2022/07/08 07:42:27;;;;;;;6.40;3.10;;;20.80;61.70;;;;;;10500197;28;20223;-78
2022/07/08 07:47:29;;;;;;;2.53;2.07;;;20.90;61.70;;;;;;10499168;28;20580;-78
2022/07/08 07:52:31;;;;;;;4.50;3.10;;;21.10;61.40;;;;;;10494022;28;20707;-78
2022/07/08 07:57:35;;;;;;;2.60;2.40;;;21.40;61.00;;;;;;10494041;28;20193;-78
2022/07/08 08:02:37;;;;;;;3.37;2.73;;;21.80;59.30;;;;;;10497060;28;20232;-78
2022/07/08 08:07:40;;;;;;;3.43;2.20;;;22.00;59.00;;;;;;10497916;28;20201;-78
2022/07/08 08:12:44;;;;;;;4.20;2.53;;;21.90;58.50;;;;;;10498040;28;20243;-78
2022/07/08 08:17:46;;;;;;;5.73;2.37;;;21.90;60.10;;;;;;10499070;28;20201;-80
2022/07/08 08:22:48;;;;;;;3.23;2.63;;;21.90;59.60;;;;;;10498952;28;20220;-80
2022/07/08 08:27:52;;;;;;;2.70;2.50;;;21.90;59.50;;;;;;10498098;28;20204;-79
2022/07/08 08:32:54;;;;;;;2.37;2.20;;;21.80;59.20;;;;;;10500841;28;20216;-80
2022/07/08 08:37:56;;;;;;;4.87;2.70;;;21.80;58.40;;;;;;10500189;28;20434;-78
2022/07/08 08:43:00;;;;;;;3.90;2.73;;;21.80;59.20;;;;;;10492232;28;20704;-79
2022/07/08 08:48:07;;;;;;;2.23;1.60;;;21.80;57.60;;;;;;10492057;28;20200;-79
2022/07/08 08:53:13;;;;;;;3.73;2.37;;;22.00;58.30;;;;;;10493081;28;20586;-78
2022/07/08 08:58:17;;;;;;;4.90;3.20;;;22.90;57.10;;;;;;10500299;28;20598;-79
2022/07/08 09:03:19;;;;;;;3.00;2.30;;;23.60;55.70;;;;;;10501110;28;20224;-78
2022/07/08 09:08:21;;;;;;;2.53;2.43;;;23.70;55.30;;;;;;10504143;28;20207;-79
2022/07/08 09:13:28;;;;;;;3.23;2.23;;;24.00;55.30;;;;;;10506924;28;20220;-80
2022/07/08 09:18:32;;;;;;;3.50;2.30;;;24.30;53.80;;;;;;10505074;28;20192;-78
2022/07/08 09:23:37;;;;;;;2.10;1.80;;;24.30;54.60;;;;;;10500488;28;20256;-79
2022/07/08 09:28:43;;;;;;;3.67;1.90;;;25.00;53.80;;;;;;10505951;28;20201;-81
2022/07/08 09:33:45;;;;;;;2.80;2.13;;;25.80;52.60;;;;;;10503864;28;20216;-78
2022/07/08 09:38:47;;;;;;;3.73;3.00;;;26.20;51.60;;;;;;10501206;28;20529;-80
2022/07/08 09:43:51;;;;;;;2.67;2.03;;;26.60;50.70;;;;;;10501859;28;20224;-79
2022/07/08 09:48:53;;;;;;;3.23;1.70;;;26.90;50.30;;;;;;10498546;28;20786;-78
2022/07/08 09:54:09;;;;;;;3.40;2.03;;;27.70;49.80;;;;;;10501054;28;20216;-79
2022/07/08 09:59:12;;;;;;;2.93;2.03;;;28.50;49.00;;;;;;10499570;28;20248;-78
2022/07/08 10:04:16;;;;;;;3.03;2.00;;;29.10;46.70;;;;;;10497369;28;20216;-79
2022/07/08 10:09:19;;;;;;;4.20;1.90;;;30.30;46.10;;;;;;10492421;28;20683;-79
2022/07/08 10:14:23;;;;;;;1.90;1.70;;;31.50;44.30;;;;;;10498601;28;20212;-79
2022/07/08 10:19:30;;;;;;;2.33;2.13;;;32.10;43.30;;;;;;10501470;28;20223;-79
2022/07/08 10:24:37;;;;;;;2.60;2.10;;;31.80;43.40;;;;;;10500307;28;20229;-77
2022/07/08 10:29:41;;;;;;;2.37;1.90;;;31.00;42.90;;;;;;10497881;28;20212;-78
2022/07/08 10:34:43;;;;;;;2.23;2.03;;;29.70;45.30;;;;;;10496829;28;20785;-77
2022/07/08 10:39:49;;;;;;;6.20;2.57;;;28.50;46.30;;;;;;10497713;28;20239;-79
2022/07/08 10:44:53;;;;;;;3.53;2.10;;;27.80;48.00;;;;;;10497486;28;20220;-78
2022/07/08 10:50:04;;;;;;;3.30;2.10;;;27.00;49.00;;;;;;10497118;28;20196;-79
2022/07/08 10:55:12;;;;;;;3.87;2.60;;;26.20;49.80;;;;;;10496399;28;20207;-77
2022/07/08 11:00:16;;;;;;;2.80;2.60;;;25.50;50.10;;;;;;10493974;28;20212;-77
2022/07/08 11:05:36;;;;;;;2.27;2.10;;;24.90;50.40;;;;;;10492969;28;20208;-78
2022/07/08 11:10:40;;;;;;;2.07;1.90;;;24.30;51.80;;;;;;10489119;28;20216;-78
2022/07/08 11:15:44;;;;;;;5.40;2.10;;;23.80;52.40;;;;;;10495729;28;20246;-77
2022/07/08 11:20:46;;;;;;;1.97;1.77;;;23.40;53.60;;;;;;10494909;28;20274;-78
2022/07/08 11:25:49;;;;;;;2.63;2.03;;;23.10;54.10;;;;;;10494628;28;20199;-77
2022/07/08 11:30:53;;;;;;;7.70;2.30;;;23.00;54.60;;;;;;10495088;28;20308;-76
2022/07/08 11:35:55;;;;;;;5.07;2.17;;;22.80;53.20;;;;;;10492876;28;20220;-77
2022/07/08 11:40:57;;;;;;;2.73;2.10;;;22.60;52.60;;;;;;10493366;28;20262;-77
2022/07/08 11:46:01;;;;;;;2.47;1.90;;;22.40;54.30;;;;;;10494022;28;20193;-77
2022/07/08 11:51:03;;;;;;;4.17;2.23;;;22.30;54.10;;;;;;10494135;28;20220;-77
2022/07/08 11:56:06;;;;;;;2.27;2.03;;;22.20;54.80;;;;;;10492545;28;20721;-77
2022/07/08 12:01:10;;;;;;;2.50;2.00;;;22.20;54.00;;;;;;10479231;28;20220;-77
2022/07/08 12:06:12;;;;;;;2.67;2.30;;;22.20;54.10;;;;;;10483397;28;20226;-77
2022/07/08 12:11:16;;;;;;;2.47;1.67;;;22.10;54.40;;;;;;10487207;28;20597;-77
2022/07/08 12:16:30;;;;;;;1.83;1.73;;;22.00;55.90;;;;;;10493196;28;20203;-77
2022/07/08 12:21:33;;;;;;;3.33;1.93;;;22.00;55.80;;;;;;10475326;28;20357;-77
2022/07/08 12:26:35;;;;;;;3.40;2.10;;;22.10;55.40;;;;;;10461799;28;20287;-77
2022/07/08 12:31:42;;;;;;;2.30;2.07;;;22.10;55.50;;;;;;10478358;28;20213;-77
2022/07/08 12:36:44;;;;;;;2.37;2.17;;;22.10;56.30;;;;;;10491736;28;20593;-77
2022/07/08 12:42:01;;;;;;;3.07;2.10;;;22.30;55.30;;;;;;10486110;28;20243;-78
2022/07/08 12:47:06;;;;;;;2.57;2.30;;;22.30;55.80;;;;;;10501982;28;20246;-78
2022/07/08 12:52:10;;;;;;;1.90;1.80;;;22.30;55.50;;;;;;10483327;28;20265;-79
2022/07/08 12:57:12;;;;;;;2.87;2.20;;;22.40;56.00;;;;;;10494670;28;20635;-80
2022/07/08 13:02:16;;;;;;;4.23;2.20;;;22.40;54.40;;;;;;10503235;28;20244;-79
2022/07/08 13:07:18;;;;;;;2.07;1.93;;;22.40;56.00;;;;;;10497812;28;20196;-78
2022/07/08 13:12:20;;;;;;;2.03;1.90;;;22.40;55.00;;;;;;10499484;28;20295;-79
2022/07/08 13:17:23;;;;;;;2.03;1.90;;;22.50;55.60;;;;;;10496522;28;20633;-79
2022/07/08 13:22:26;;;;;;;2.70;2.00;;;22.60;55.60;;;;;;10497110;28;20221;-79
2022/07/08 13:27:32;;;;;;;2.53;1.40;;;22.60;55.40;;;;;;10497021;28;20288;-79
2022/07/08 13:32:35;;;;;;;2.70;2.20;;;22.60;55.70;;;;;;10480807;28;20220;-79
2022/07/08 13:37:37;;;;;;;2.37;2.13;;;22.70;54.60;;;;;;10495510;28;20235;-79
2022/07/08 13:42:39;;;;;;;2.77;2.53;;;22.80;55.30;;;;;;10501938;28;20636;-79
2022/07/08 13:47:43;;;;;;;5.13;2.50;;;22.80;55.60;;;;;;10505301;28;20253;-80
2022/07/08 13:52:45;;;;;;;3.60;2.37;;;22.90;55.00;;;;;;10505585;28;20220;-80
2022/07/08 13:57:47;;;;;;;3.63;2.00;;;22.90;54.60;;;;;;10505748;28;20197;-80
2022/07/08 14:02:51;;;;;;;2.40;2.20;;;22.90;54.70;;;;;;10502475;28;20263;-78
2022/07/08 14:07:54;;;;;;;2.43;2.23;;;22.90;55.20;;;;;;10500553;28;20216;-78
2022/07/08 14:12:56;;;;;;;2.27;2.10;;;22.90;55.20;;;;;;10499022;28;20239;-78
2022/07/08 14:17:59;;;;;;;3.30;2.70;;;22.90;55.50;;;;;;10500207;28;20664;-78
2022/07/08 14:23:01;;;;;;;2.40;2.20;;;23.00;56.00;;;;;;10499848;28;20708;-78
2022/07/08 14:28:04;;;;;;;2.40;2.20;;;23.00;54.50;;;;;;10499503;28;20206;-78
2022/07/08 14:33:07;;;;;;;2.57;2.20;;;23.10;53.90;;;;;;10499705;28;20220;-78
2022/07/08 14:38:10;;;;;;;1.97;1.80;;;23.00;54.70;;;;;;10499605;28;20258;-78
2022/07/08 14:43:14;;;;;;;2.40;2.20;;;23.00;54.30;;;;;;10498002;28;20339;-78
2022/07/08 14:48:17;;;;;;;3.80;2.30;;;23.00;54.60;;;;;;10500477;28;20614;-78
2022/07/08 14:53:19;;;;;;;4.57;2.10;;;22.90;55.60;;;;;;10498418;28;20212;-78
2022/07/08 14:58:22;;;;;;;2.30;2.10;;;22.90;55.00;;;;;;10498713;28;20192;-78
2022/07/08 15:03:25;;;;;;;3.03;2.47;;;23.00;55.20;;;;;;10481028;28;20228;-78
2022/07/08 15:08:28;;;;;;;6.13;2.70;;;23.00;56.00;;;;;;10496510;28;20196;-78
2022/07/08 15:13:33;;;;;;;2.37;1.83;;;23.00;55.40;;;;;;10497483;28;20224;-78
2022/07/08 15:18:39;;;;;;;1.87;1.77;;;23.00;54.80;;;;;;10497197;28;20209;-78
2022/07/08 15:23:41;;;;;;;2.23;1.73;;;23.00;54.70;;;;;;10501461;28;20216;-79
2022/07/08 15:28:43;;;;;;;2.90;2.33;;;23.00;55.10;;;;;;10483951;28;20709;-79
2022/07/08 15:33:47;;;;;;;2.23;1.40;;;23.00;55.20;;;;;;10502419;28;20235;-79
2022/07/08 15:38:49;;;;;;;1.70;1.40;;;23.00;55.10;;;;;;10500786;28;20291;-78
2022/07/08 15:43:51;;;;;;;2.23;1.90;;;23.10;53.20;;;;;;10499189;28;20306;-77
2022/07/08 15:48:55;;;;;;;2.70;1.93;;;23.00;56.40;;;;;;10498480;28;20238;-78
2022/07/08 15:53:57;;;;;;;2.70;2.20;;;23.00;56.70;;;;;;10488800;28;20849;-78
2022/07/08 15:58:59;;;;;;;3.07;2.23;;;22.90;58.30;;;;;;10493678;28;20211;-76
2022/07/08 16:04:02;;;;;;;4.13;2.77;;;22.80;58.40;;;;;;10491053;28;20232;-76
2022/07/08 16:09:05;;;;;;;3.07;2.50;;;22.90;56.00;;;;;;10492991;28;20295;-77
2022/07/08 16:14:07;;;;;;;3.27;2.10;;;22.90;55.70;;;;;;10493168;28;20228;-78
2022/07/08 16:19:11;;;;;;;2.87;2.67;;;22.90;55.70;;;;;;10494623;28;20590;-79
2022/07/08 16:24:13;;;;;;;4.63;2.20;;;22.90;56.60;;;;;;10489493;28;20750;-78
2022/07/08 16:29:15;;;;;;;2.40;2.30;;;22.80;55.70;;;;;;10495397;28;20291;-76
2022/07/08 16:34:19;;;;;;;2.93;2.67;;;22.90;55.70;;;;;;10491148;28;20236;-76
2022/07/08 16:39:22;;;;;;;3.00;2.80;;;22.90;54.60;;;;;;10491446;28;20208;-77
2022/07/08 16:44:27;;;;;;;4.27;3.30;;;22.90;54.80;;;;;;10489137;28;20582;-76
2022/07/08 16:49:31;;;;;;;2.50;2.30;;;22.90;56.20;;;;;;10478548;28;20560;-77
2022/07/08 16:54:33;;;;;;;2.30;2.10;;;22.90;56.00;;;;;;10484687;28;20405;-77
2022/07/08 16:59:36;;;;;;;4.87;2.50;;;22.90;53.90;;;;;;10486674;28;20223;-78
2022/07/08 17:04:39;;;;;;;2.63;2.10;;;22.90;54.30;;;;;;10495761;28;20217;-78
2022/07/08 17:09:42;;;;;;;2.80;2.50;;;22.90;54.50;;;;;;10497052;28;20246;-78
2022/07/08 17:14:44;;;;;;;2.27;2.00;;;22.90;55.00;;;;;;10498458;28;20262;-79
2022/07/08 17:19:48;;;;;;;3.50;2.43;;;22.90;54.30;;;;;;10503390;28;20197;-79
2022/07/08 17:24:50;;;;;;;2.63;2.43;;;22.90;53.70;;;;;;10501938;28;20786;-78
2022/07/08 17:29:52;;;;;;;3.20;2.13;;;22.90;54.30;;;;;;10503603;28;20720;-79
2022/07/08 17:34:57;;;;;;;5.00;2.17;;;22.90;54.00;;;;;;10501100;28;20215;-76
2022/07/08 17:39:59;;;;;;;6.00;2.40;;;22.80;55.00;;;;;;10493120;28;20232;-75
2022/07/08 17:45:01;;;;;;;3.43;2.57;;;22.80;56.40;;;;;;10485531;28;20221;-76
2022/07/08 17:50:10;;;;;;;3.43;2.20;;;22.80;53.60;;;;;;10492170;28;20307;-76
2022/07/08 17:55:13;;;;;;;2.60;2.40;;;22.80;55.30;;;;;;10496400;28;20236;-78
2022/07/08 18:00:18;;;;;;;3.80;2.80;;;22.70;55.10;;;;;;10495317;28;20220;-76
2022/07/08 18:05:21;;;;;;;4.60;2.70;;;22.70;55.00;;;;;;10492065;28;20250;-77
2022/07/08 18:10:23;;;;;;;2.40;1.97;;;22.60;57.30;;;;;;10496745;28;20221;-77
2022/07/08 18:15:25;;;;;;;3.60;2.47;;;22.60;59.00;;;;;;10499376;28;20227;-79
2022/07/08 18:20:28;;;;;;;2.77;2.57;;;22.50;57.20;;;;;;10502874;28;20269;-77
2022/07/08 18:25:31;;;;;;;2.80;2.20;;;22.50;55.90;;;;;;10502244;28;20668;-79
2022/07/08 18:30:33;;;;;;;2.40;2.20;;;22.40;56.10;;;;;;10504112;28;20696;-79
2022/07/08 18:35:36;;;;;;;3.20;2.83;;;22.40;56.90;;;;;;10502867;28;20279;-79
2022/07/08 18:40:39;;;;;;;3.90;2.13;;;22.30;58.80;;;;;;10503289;28;20244;-79
2022/07/08 18:45:41;;;;;;;3.00;2.70;;;22.30;58.80;;;;;;10506415;28;20242;-78
2022/07/08 18:50:45;;;;;;;4.60;2.70;;;22.20;56.40;;;;;;10503983;28;20224;-78
2022/07/08 18:55:47;;;;;;;3.77;2.93;;;22.20;57.10;;;;;;10501574;28;20215;-79
2022/07/08 19:00:51;;;;;;;3.40;3.10;;;22.10;57.00;;;;;;10500907;28;20212;-79
2022/07/08 19:05:57;;;;;;;3.73;2.57;;;22.10;57.80;;;;;;10500343;28;20248;-79
2022/07/08 19:10:59;;;;;;;3.20;3.00;;;22.10;58.00;;;;;;10502259;28;20293;-79
2022/07/08 19:16:01;;;;;;;4.23;3.03;;;22.00;58.60;;;;;;10501465;28;20238;-79
2022/07/08 19:21:05;;;;;;;3.80;3.30;;;22.00;59.40;;;;;;10501030;28;20303;-77
2022/07/08 19:26:07;;;;;;;2.90;2.70;;;22.00;63.20;;;;;;10501504;28;20282;-79
2022/07/08 19:31:09;;;;;;;3.63;2.93;;;22.00;62.50;;;;;;10500555;28;20240;-78
2022/07/08 19:36:13;;;;;;;3.60;2.80;;;21.90;64.40;;;;;;10499330;28;20204;-78
2022/07/08 19:41:15;;;;;;;4.83;2.93;;;21.80;59.50;;;;;;10501501;28;20219;-78
2022/07/08 19:46:17;;;;;;;4.07;3.37;;;21.70;59.80;;;;;;10499049;28;20243;-78
2022/07/08 19:51:21;;;;;;;5.30;3.00;;;21.60;58.80;;;;;;10498810;28;20244;-77
2022/07/08 19:56:23;;;;;;;3.63;2.90;;;21.40;60.50;;;;;;10498840;28;20235;-78
2022/07/08 20:01:25;;;;;;;4.40;3.10;;;21.20;59.80;;;;;;10498780;28;20224;-78
2022/07/08 20:06:28;;;;;;;2.50;2.30;;;21.00;61.00;;;;;;10497067;28;20215;-78
2022/07/08 20:11:30;;;;;;;4.07;3.77;;;20.90;61.10;;;;;;10497861;28;20299;-78
2022/07/08 20:16:33;;;;;;;4.27;2.93;;;20.80;61.30;;;;;;10496417;28;20284;-78
2022/07/08 20:21:36;;;;;;;3.30;2.87;;;20.70;60.30;;;;;;10497275;28;20236;-78
2022/07/08 20:26:38;;;;;;;4.43;3.70;;;20.60;61.00;;;;;;10479408;28;20220;-78
2022/07/08 20:31:40;;;;;;;2.77;2.50;;;20.50;61.50;;;;;;10495935;28;20224;-78
2022/07/08 20:36:44;;;;;;;3.27;2.70;;;20.40;61.90;;;;;;10495817;28;20209;-77
2022/07/08 20:47:06;;;;;;;3.10;2.83;;;20.20;63.50;;;;;;10492675;28;20218;-76
2022/07/08 20:52:09;;;;;;;3.53;2.80;;;20.10;63.30;;;;;;10496520;28;20220;-78
2022/07/08 20:57:14;;;;;;;3.77;2.93;;;20.00;64.20;;;;;;10497420;28;20207;-76
2022/07/08 21:02:16;;;;;;;3.20;2.40;;;20.00;64.40;;;;;;10497578;28;20265;-78
2022/07/08 21:07:20;;;;;;;3.67;2.60;;;19.90;64.00;;;;;;10495893;28;20199;-78
2022/07/08 21:12:22;;;;;;;7.60;2.63;;;19.90;64.70;;;;;;10498312;28;20224;-78
2022/07/08 21:17:25;;;;;;;3.87;2.73;;;19.80;64.20;;;;;;10498452;28;20211;-78
2022/07/08 21:22:28;;;;;;;3.20;2.80;;;19.70;64.70;;;;;;10495945;28;20278;-77
2022/07/08 21:27:30;;;;;;;4.70;3.10;;;19.70;64.30;;;;;;10499013;28;20196;-78
2022/07/08 21:32:32;;;;;;;3.93;2.57;;;19.70;66.10;;;;;;10496756;28;20655;-77
2022/07/08 21:37:36;;;;;;;3.30;2.80;;;19.70;65.00;;;;;;10496416;28;20598;-78
2022/07/08 21:42:38;;;;;;;2.40;2.20;;;19.60;65.20;;;;;;10497296;28;20223;-78
2022/07/08 21:47:40;;;;;;;3.03;2.37;;;19.60;65.10;;;;;;10495300;28;20266;-78
2022/07/08 21:52:43;;;;;;;3.10;2.90;;;19.60;65.70;;;;;;10488414;28;20220;-76
2022/07/08 21:57:47;;;;;;;6.60;3.17;;;19.60;64.80;;;;;;10485030;28;20210;-78
2022/07/08 22:02:50;;;;;;;2.87;2.67;;;19.60;64.50;;;;;;10491684;28;20293;-78
2022/07/08 22:07:53;;;;;;;4.00;3.10;;;19.50;64.10;;;;;;10492434;28;20262;-78
2022/07/08 22:12:55;;;;;;;5.90;3.03;;;19.50;64.70;;;;;;10489498;28;20221;-76
2022/07/08 22:18:00;;;;;;;4.27;2.33;;;19.40;65.00;;;;;;10489126;28;20208;-78
2022/07/08 22:23:03;;;;;;;3.47;2.93;;;19.40;67.10;;;;;;10494746;28;20220;-78
2022/07/08 22:28:07;;;;;;;2.67;2.47;;;19.40;65.50;;;;;;10492141;28;20279;-79
2022/07/08 22:33:09;;;;;;;5.63;2.60;;;19.30;67.50;;;;;;10492126;28;20220;-79
2022/07/08 22:38:12;;;;;;;4.83;2.83;;;19.30;67.00;;;;;;10493530;28;20631;-79
2022/07/08 22:43:14;;;;;;;4.17;2.97;;;19.30;68.10;;;;;;10494936;28;20248;-80
2022/07/08 22:48:17;;;;;;;3.27;2.53;;;19.30;68.10;;;;;;10496827;28;20208;-80
2022/07/08 22:53:20;;;;;;;5.27;2.43;;;19.40;67.30;;;;;;10490402;28;20226;-79
2022/07/08 22:58:22;;;;;;;3.50;2.80;;;19.40;66.80;;;;;;10496320;28;20200;-80
2022/07/08 23:03:24;;;;;;;4.50;2.60;;;19.30;67.90;;;;;;10490532;28;20321;-76
2022/07/08 23:08:28;;;;;;;3.67;2.20;;;19.20;68.30;;;;;;10490212;28;20201;-77
2022/07/08 23:13:30;;;;;;;2.47;2.23;;;19.20;68.80;;;;;;10489343;28;20208;-77
2022/07/08 23:18:32;;;;;;;2.90;2.60;;;19.20;68.50;;;;;;10489275;28;20204;-77
2022/07/08 23:23:35;;;;;;;3.73;2.47;;;19.10;67.90;;;;;;10487970;28;20248;-77
2022/07/08 23:28:37;;;;;;;3.43;2.60;;;19.00;69.70;;;;;;10489533;28;20211;-77
2022/07/08 23:33:40;;;;;;;2.50;2.30;;;19.00;68.60;;;;;;10488711;28;20216;-78
2022/07/08 23:38:43;;;;;;;3.37;2.60;;;18.90;68.70;;;;;;10488729;28;20206;-77
2022/07/08 23:43:45;;;;;;;3.97;2.53;;;18.90;70.00;;;;;;10490242;28;20307;-77
2022/07/08 23:48:47;;;;;;;3.77;2.17;;;18.90;70.70;;;;;;10490659;28;20695;-77
2022/07/08 23:53:50;;;;;;;4.03;2.30;;;18.80;70.00;;;;;;10487868;28;20303;-77
2022/07/08 23:58:52;;;;;;;2.50;2.30;;;18.80;69.60;;;;;;10487583;28;20762;-77
